sensor_id;sensor_type;location;lat;lon;timestamp;pressure;altitude;pressure_sealevel;temperature;humidity
56600;BME280;51832;48.152;11.530;2023-03-03T00:04:37;95522.69;;;4.65;71.21
56600;BME280;51832;48.152;11.530;2023-03-03T00:09:38;95527.97;;;4.86;70.88
56600;BME280;51832;48.152;11.530;2023-03-03T00:14:39;95516.00;;;4.92;70.01
56600;BME280;51832;48.152;11.530;2023-03-03T00:19:39;95517.66;;;4.99;70.11
56600;BME280;51832;48.152;11.530;2023-03-03T00:24:41;95514.25;;;4.78;70.60
56600;BME280;51832;48.152;11.530;2023-03-03T00:29:52;95508.59;;;4.95;70.73
56600;BME280;51832;48.152;11.530;2023-03-03T00:34:57;95512.59;;;4.91;70.32
56600;BME280;51832;48.152;11.530;2023-03-03T00:40:19;95519.09;;;4.66;71.27
56600;BME280;51832;48.152;11.530;2023-03-03T00:50:34;95524.00;;;4.90;70.65
56600;BME280;51832;48.152;11.530;2023-03-03T00:55:34;95526.31;;;5.00;69.38
56600;BME280;51832;48.152;11.530;2023-03-03T01:00:35;95523.75;;;4.85;70.49
56600;BME280;51832;48.152;11.530;2023-03-03T01:05:36;95525.19;;;4.88;70.82
56600;BME280;51832;48.152;11.530;2023-03-03T01:10:41;95528.31;;;4.83;70.38
56600;BME280;51832;48.152;11.530;2023-03-03T01:15:43;95524.38;;;5.09;69.64
56600;BME280;51832;48.152;11.530;2023-03-03T01:20:44;95521.63;;;4.95;71.04
56600;BME280;51832;48.152;11.530;2023-03-03T01:25:44;95519.53;;;4.70;72.05
56600;BME280;51832;48.152;11.530;2023-03-03T01:30:44;95520.22;;;4.57;71.96
56600;BME280;51832;48.152;11.530;2023-03-03T01:35:46;95519.91;;;5.03;70.81
56600;BME280;51832;48.152;11.530;2023-03-03T01:40:55;95514.31;;;4.48;72.94
56600;BME280;51832;48.152;11.530;2023-03-03T01:51:00;95510.97;;;4.25;73.82
56600;BME280;51832;48.152;11.530;2023-03-03T01:56:02;95501.97;;;4.57;72.80
56600;BME280;51832;48.152;11.530;2023-03-03T02:01:07;95497.59;;;4.43;73.45
56600;BME280;51832;48.152;11.530;2023-03-03T02:06:12;95493.84;;;4.67;72.59
56600;BME280;51832;48.152;11.530;2023-03-03T02:11:13;95488.09;;;4.71;72.26
56600;BME280;51832;48.152;11.530;2023-03-03T02:16:15;95495.41;;;4.61;72.96
56600;BME280;51832;48.152;11.530;2023-03-03T02:21:19;95496.41;;;4.81;72.43
56600;BME280;51832;48.152;11.530;2023-03-03T02:26:26;95495.25;;;4.84;71.76
56600;BME280;51832;48.152;11.530;2023-03-03T02:31:29;95498.69;;;5.06;71.25
56600;BME280;51832;48.152;11.530;2023-03-03T02:36:32;95509.78;;;5.14;70.43
56600;BME280;51832;48.152;11.530;2023-03-03T02:41:38;95507.75;;;5.31;70.06
56600;BME280;51832;48.152;11.530;2023-03-03T02:46:42;95505.44;;;5.00;70.76
56600;BME280;51832;48.152;11.530;2023-03-03T02:51:43;95495.63;;;5.02;70.45
56600;BME280;51832;48.152;11.530;2023-03-03T02:56:44;95488.16;;;5.20;70.57
56600;BME280;51832;48.152;11.530;2023-03-03T03:01:45;95490.41;;;5.23;70.61
56600;BME280;51832;48.152;11.530;2023-03-03T03:06:46;95494.75;;;4.95;71.26
56600;BME280;51832;48.152;11.530;2023-03-03T03:11:46;95487.09;;;4.93;71.80
56600;BME280;51832;48.152;11.530;2023-03-03T03:16:47;95494.31;;;5.13;71.78
56600;BME280;51832;48.152;11.530;2023-03-03T03:21:47;95496.16;;;5.40;70.42
56600;BME280;51832;48.152;11.530;2023-03-03T03:26:48;95504.25;;;5.24;71.03
56600;BME280;51832;48.152;11.530;2023-03-03T03:31:48;95504.66;;;5.49;70.24
56600;BME280;51832;48.152;11.530;2023-03-03T03:36:48;95504.44;;;5.44;69.92
56600;BME280;51832;48.152;11.530;2023-03-03T03:41:49;95496.91;;;5.55;70.39
56600;BME280;51832;48.152;11.530;2023-03-03T03:46:49;95502.81;;;5.21;71.54
56600;BME280;51832;48.152;11.530;2023-03-03T03:51:50;95495.94;;;5.14;71.48
56600;BME280;51832;48.152;11.530;2023-03-03T03:56:50;95496.44;;;5.24;71.76
56600;BME280;51832;48.152;11.530;2023-03-03T04:01:50;95502.94;;;5.34;70.79
56600;BME280;51832;48.152;11.530;2023-03-03T04:06:51;95496.84;;;5.49;70.68
56600;BME280;51832;48.152;11.530;2023-03-03T04:11:51;95504.34;;;5.58;70.43
56600;BME280;51832;48.152;11.530;2023-03-03T04:16:52;95507.59;;;5.39;70.41
56600;BME280;51832;48.152;11.530;2023-03-03T04:21:52;95503.38;;;5.59;70.32
56600;BME280;51832;48.152;11.530;2023-03-03T04:26:52;95507.03;;;5.44;70.79
56600;BME280;51832;48.152;11.530;2023-03-03T04:31:53;95509.44;;;5.66;70.28
56600;BME280;51832;48.152;11.530;2023-03-03T04:36:54;95510.56;;;5.36;70.98
56600;BME280;51832;48.152;11.530;2023-03-03T04:41:54;95506.06;;;5.45;71.11
56600;BME280;51832;48.152;11.530;2023-03-03T04:46:55;95505.16;;;5.59;70.28
56600;BME280;51832;48.152;11.530;2023-03-03T04:51:56;95507.63;;;5.67;70.09
56600;BME280;51832;48.152;11.530;2023-03-03T04:56:56;95503.47;;;5.72;69.75
56600;BME280;51832;48.152;11.530;2023-03-03T05:01:57;95499.34;;;5.63;70.12
56600;BME280;51832;48.152;11.530;2023-03-03T05:06:58;95517.78;;;5.55;69.94
56600;BME280;51832;48.152;11.530;2023-03-03T05:11:58;95508.19;;;5.62;69.95
56600;BME280;51832;48.152;11.530;2023-03-03T05:16:59;95508.28;;;5.76;70.00
56600;BME280;51832;48.152;11.530;2023-03-03T05:21:59;95506.09;;;5.51;69.61
56600;BME280;51832;48.152;11.530;2023-03-03T05:27:01;95505.09;;;5.52;69.59
56600;BME280;51832;48.152;11.530;2023-03-03T05:32:02;95511.19;;;5.87;68.65
56600;BME280;51832;48.152;11.530;2023-03-03T05:37:03;95520.69;;;5.95;68.69
56600;BME280;51832;48.152;11.530;2023-03-03T05:42:05;95518.16;;;5.52;70.16
56600;BME280;51832;48.152;11.530;2023-03-03T05:47:06;95524.50;;;5.43;70.77
56600;BME280;51832;48.152;11.530;2023-03-03T05:52:06;95526.63;;;5.61;69.86
56600;BME280;51832;48.152;11.530;2023-03-03T05:57:08;95528.94;;;5.70;70.02
56600;BME280;51832;48.152;11.530;2023-03-03T06:02:08;95535.69;;;5.58;70.01
56600;BME280;51832;48.152;11.530;2023-03-03T06:07:08;95533.44;;;5.34;71.02
56600;BME280;51832;48.152;11.530;2023-03-03T06:12:09;95544.09;;;5.60;70.17
56600;BME280;51832;48.152;11.530;2023-03-03T06:17:10;95554.97;;;5.85;69.58
56600;BME280;51832;48.152;11.530;2023-03-03T06:22:10;95560.19;;;5.85;69.17
56600;BME280;51832;48.152;11.530;2023-03-03T06:27:11;95565.91;;;5.74;69.56
56600;BME280;51832;48.152;11.530;2023-03-03T06:32:13;95567.22;;;5.85;69.35
56600;BME280;51832;48.152;11.530;2023-03-03T06:37:14;95562.69;;;5.51;69.88
56600;BME280;51832;48.152;11.530;2023-03-03T06:42:15;95562.44;;;5.67;69.71
56600;BME280;51832;48.152;11.530;2023-03-03T06:47:15;95567.09;;;5.50;70.23
56600;BME280;51832;48.152;11.530;2023-03-03T06:52:24;95577.09;;;5.68;69.49
56600;BME280;51832;48.152;11.530;2023-03-03T06:57:30;95568.66;;;5.87;69.16
56600;BME280;51832;48.152;11.530;2023-03-03T07:02:31;95573.63;;;5.82;68.43
56600;BME280;51832;48.152;11.530;2023-03-03T07:07:31;95584.31;;;5.66;69.31
56600;BME280;51832;48.152;11.530;2023-03-03T07:12:34;95586.09;;;6.08;67.98
56600;BME280;51832;48.152;11.530;2023-03-03T07:17:36;95592.66;;;5.97;68.02
56600;BME280;51832;48.152;11.530;2023-03-03T07:22:38;95597.66;;;5.78;68.97
56600;BME280;51832;48.152;11.530;2023-03-03T07:27:39;95599.81;;;6.17;67.50
56600;BME280;51832;48.152;11.530;2023-03-03T07:32:42;95600.31;;;5.99;68.11
56600;BME280;51832;48.152;11.530;2023-03-03T07:37:43;95612.34;;;5.79;68.95
56600;BME280;51832;48.152;11.530;2023-03-03T07:42:43;95616.97;;;5.98;68.37
56600;BME280;51832;48.152;11.530;2023-03-03T07:47:44;95621.47;;;6.11;68.00
56600;BME280;51832;48.152;11.530;2023-03-03T07:57:56;95629.44;;;6.02;67.68
56600;BME280;51832;48.152;11.530;2023-03-03T08:03:12;95624.91;;;6.39;66.51
56600;BME280;51832;48.152;11.530;2023-03-03T08:08:30;95632.22;;;6.57;66.01
56600;BME280;51832;48.152;11.530;2023-03-03T08:18:41;95621.09;;;6.41;66.60
56600;BME280;51832;48.152;11.530;2023-03-03T08:23:42;95626.31;;;6.41;66.24
56600;BME280;51832;48.152;11.530;2023-03-03T08:28:44;95620.88;;;6.43;66.62
56600;BME280;51832;48.152;11.530;2023-03-03T08:33:46;95622.03;;;6.34;66.77
56600;BME280;51832;48.152;11.530;2023-03-03T08:38:46;95633.41;;;6.89;65.44
56600;BME280;51832;48.152;11.530;2023-03-03T08:43:47;95636.88;;;6.96;64.81
56600;BME280;51832;48.152;11.530;2023-03-03T08:48:47;95642.19;;;7.09;64.58
56600;BME280;51832;48.152;11.530;2023-03-03T08:53:49;95654.22;;;7.03;64.14
56600;BME280;51832;48.152;11.530;2023-03-03T08:58:49;95646.75;;;7.68;61.80
56600;BME280;51832;48.152;11.530;2023-03-03T09:03:49;95654.44;;;7.76;62.17
56600;BME280;51832;48.152;11.530;2023-03-03T09:08:50;95650.63;;;7.72;61.60
56600;BME280;51832;48.152;11.530;2023-03-03T09:13:56;95656.69;;;7.92;61.41
56600;BME280;51832;48.152;11.530;2023-03-03T09:18:58;95651.25;;;8.13;61.01
56600;BME280;51832;48.152;11.530;2023-03-03T09:24:01;95659.31;;;7.92;60.30
56600;BME280;51832;48.152;11.530;2023-03-03T09:39:25;95668.50;;;7.55;62.48
56600;BME280;51832;48.152;11.530;2023-03-03T09:44:29;95667.78;;;8.14;60.27
56600;BME280;51832;48.152;11.530;2023-03-03T09:49:37;95679.06;;;8.08;61.04
56600;BME280;51832;48.152;11.530;2023-03-03T10:10:44;95685.38;;;8.60;57.82
56600;BME280;51832;48.152;11.530;2023-03-03T10:21:11;95689.78;;;8.85;57.71
56600;BME280;51832;48.152;11.530;2023-03-03T10:42:56;95703.41;;;9.27;56.46
56600;BME280;51832;48.152;11.530;2023-03-03T11:14:36;95706.66;;;10.05;54.08
56600;BME280;51832;48.152;11.530;2023-03-03T11:19:59;95703.13;;;9.86;54.64
56600;BME280;51832;48.152;11.530;2023-03-03T11:40:58;95703.84;;;9.62;55.64
56600;BME280;51832;48.152;11.530;2023-03-03T11:51:16;95678.88;;;10.16;54.13
56600;BME280;51832;48.152;11.530;2023-03-03T12:01:33;95675.75;;;10.32;53.35
56600;BME280;51832;48.152;11.530;2023-03-03T12:07:36;95672.31;;;10.31;52.82
56600;BME280;51832;48.152;11.530;2023-03-03T12:12:26;95656.75;;;10.55;52.23
56600;BME280;51832;48.152;11.530;2023-03-03T12:17:48;95673.16;;;10.25;53.08
56600;BME280;51832;48.152;11.530;2023-03-03T12:23:32;95662.91;;;10.17;54.10
56600;BME280;51832;48.152;11.530;2023-03-03T12:28:39;95664.81;;;10.04;54.32
56600;BME280;51832;48.152;11.530;2023-03-03T12:55:19;95656.69;;;11.53;48.56
56600;BME280;51832;48.152;11.530;2023-03-03T13:00:34;95658.41;;;11.95;47.81
56600;BME280;51832;48.152;11.530;2023-03-03T13:16:21;95649.78;;;11.88;48.40
56600;BME280;51832;48.152;11.530;2023-03-03T13:21:30;95653.31;;;11.82;48.09
56600;BME280;51832;48.152;11.530;2023-03-03T13:26:44;95653.53;;;11.62;48.41
56600;BME280;51832;48.152;11.530;2023-03-03T13:31:51;95643.63;;;11.10;50.45
56600;BME280;51832;48.152;11.530;2023-03-03T13:37:43;95645.91;;;11.43;49.20
56600;BME280;51832;48.152;11.530;2023-03-03T13:47:53;95641.22;;;12.04;47.98
56600;BME280;51832;48.152;11.530;2023-03-03T13:58:23;95625.91;;;12.71;45.97
56600;BME280;51832;48.152;11.530;2023-03-03T14:03:34;95622.47;;;14.36;41.87
56600;BME280;51832;48.152;11.530;2023-03-03T14:13:59;95613.25;;;15.11;39.63
56600;BME280;51832;48.152;11.530;2023-03-03T14:19:08;95601.63;;;15.82;38.03
56600;BME280;51832;48.152;11.530;2023-03-03T14:24:21;95590.03;;;16.57;36.64
56600;BME280;51832;48.152;11.530;2023-03-03T14:34:37;95602.66;;;17.24;34.14
56600;BME280;51832;48.152;11.530;2023-03-03T14:39:39;95592.56;;;17.21;34.50
56600;BME280;51832;48.152;11.530;2023-03-03T14:44:53;95585.63;;;18.59;31.69
56600;BME280;51832;48.152;11.530;2023-03-03T14:49:56;95594.66;;;20.12;29.26
56600;BME280;51832;48.152;11.530;2023-03-03T14:55:28;95590.84;;;21.81;26.10
56600;BME280;51832;48.152;11.530;2023-03-03T15:00:32;95600.34;;;24.40;23.58
56600;BME280;51832;48.152;11.530;2023-03-03T15:05:33;95601.78;;;24.69;22.32
56600;BME280;51832;48.152;11.530;2023-03-03T15:10:38;95591.97;;;25.66;21.33
56600;BME280;51832;48.152;11.530;2023-03-03T15:31:27;95604.09;;;25.94;19.93
56600;BME280;51832;48.152;11.530;2023-03-03T15:36:36;95611.25;;;25.59;20.40
56600;BME280;51832;48.152;11.530;2023-03-03T15:46:53;95600.69;;;23.07;23.34
56600;BME280;51832;48.152;11.530;2023-03-03T16:03:42;95597.50;;;22.73;24.33
56600;BME280;51832;48.152;11.530;2023-03-03T16:25:12;95619.94;;;21.21;26.24
56600;BME280;51832;48.152;11.530;2023-03-03T16:30:38;95620.56;;;20.16;28.04
56600;BME280;51832;48.152;11.530;2023-03-03T16:35:47;95621.59;;;18.92;30.12
56600;BME280;51832;48.152;11.530;2023-03-03T16:40:54;95622.06;;;17.87;31.83
56600;BME280;51832;48.152;11.530;2023-03-03T16:45:59;95628.59;;;17.54;32.90
56600;BME280;51832;48.152;11.530;2023-03-03T16:51:19;95633.00;;;16.81;34.38
56600;BME280;51832;48.152;11.530;2023-03-03T16:56:38;95651.50;;;15.80;36.97
56600;BME280;51832;48.152;11.530;2023-03-03T17:01:57;95642.09;;;14.90;39.21
56600;BME280;51832;48.152;11.530;2023-03-03T17:18:13;95652.16;;;13.76;42.46
56600;BME280;51832;48.152;11.530;2023-03-03T17:34:43;95670.47;;;13.55;43.53
56600;BME280;51832;48.152;11.530;2023-03-03T17:40:22;95679.84;;;13.34;44.05
56600;BME280;51832;48.152;11.530;2023-03-03T17:45:27;95690.91;;;13.19;44.57
56600;BME280;51832;48.152;11.530;2023-03-03T17:50:46;95687.25;;;13.60;43.91
56600;BME280;51832;48.152;11.530;2023-03-03T17:56:02;95704.44;;;12.99;45.03
56600;BME280;51832;48.152;11.530;2023-03-03T18:11:42;95711.31;;;11.46;49.70
56600;BME280;51832;48.152;11.530;2023-03-03T18:27:34;95726.81;;;10.74;53.04
56600;BME280;51832;48.152;11.530;2023-03-03T18:37:56;95719.88;;;10.55;54.17
56600;BME280;51832;48.152;11.530;2023-03-03T18:42:56;95730.81;;;10.58;53.36
56600;BME280;51832;48.152;11.530;2023-03-03T18:53:15;95730.78;;;10.33;54.68
56600;BME280;51832;48.152;11.530;2023-03-03T19:03:35;95734.50;;;10.51;54.53
56600;BME280;51832;48.152;11.530;2023-03-03T19:13:47;95735.25;;;10.26;54.78
56600;BME280;51832;48.152;11.530;2023-03-03T19:23:54;95756.16;;;10.15;55.72
56600;BME280;51832;48.152;11.530;2023-03-03T19:29:17;95751.25;;;9.87;56.18
56600;BME280;51832;48.152;11.530;2023-03-03T19:34:36;95754.81;;;9.99;55.69
56600;BME280;51832;48.152;11.530;2023-03-03T19:39:52;95754.94;;;10.17;54.27
56600;BME280;51832;48.152;11.530;2023-03-03T19:45:17;95749.56;;;9.99;55.68
56600;BME280;51832;48.152;11.530;2023-03-03T19:56:00;95757.91;;;9.89;55.54
56600;BME280;51832;48.152;11.530;2023-03-03T20:16:45;95769.41;;;9.37;57.79
56600;BME280;51832;48.152;11.530;2023-03-03T20:22:09;95776.09;;;9.33;57.61
56600;BME280;51832;48.152;11.530;2023-03-03T20:48:43;95790.25;;;8.33;62.10
56600;BME280;51832;48.152;11.530;2023-03-03T21:04:28;95784.34;;;8.18;62.94
56600;BME280;51832;48.152;11.530;2023-03-03T21:09:36;95785.66;;;7.94;63.48
56600;BME280;51832;48.152;11.530;2023-03-03T21:14:37;95788.13;;;8.02;63.39
56600;BME280;51832;48.152;11.530;2023-03-03T21:19:38;95789.19;;;7.60;65.33
56600;BME280;51832;48.152;11.530;2023-03-03T21:24:54;95788.84;;;7.83;64.29
56600;BME280;51832;48.152;11.530;2023-03-03T21:30:15;95786.91;;;7.92;64.01
56600;BME280;51832;48.152;11.530;2023-03-03T21:35:18;95791.94;;;7.52;65.24
56600;BME280;51832;48.152;11.530;2023-03-03T21:40:28;95796.84;;;7.62;65.31
56600;BME280;51832;48.152;11.530;2023-03-03T21:45:29;95790.66;;;7.35;66.47
56600;BME280;51832;48.152;11.530;2023-03-03T21:50:29;95790.56;;;7.56;65.38
56600;BME280;51832;48.152;11.530;2023-03-03T21:55:31;95791.75;;;7.54;65.02
56600;BME280;51832;48.152;11.530;2023-03-03T22:00:32;95797.66;;;7.69;64.91
56600;BME280;51832;48.152;11.530;2023-03-03T22:05:32;95802.28;;;7.60;64.79
56600;BME280;51832;48.152;11.530;2023-03-03T22:10:33;95800.16;;;7.42;65.58
56600;BME280;51832;48.152;11.530;2023-03-03T22:15:33;95796.78;;;7.48;64.97
56600;BME280;51832;48.152;11.530;2023-03-03T22:20:33;95800.53;;;7.74;64.96
56600;BME280;51832;48.152;11.530;2023-03-03T22:25:34;95803.28;;;7.59;65.42
56600;BME280;51832;48.152;11.530;2023-03-03T22:30:35;95793.69;;;7.79;64.05
56600;BME280;51832;48.152;11.530;2023-03-03T22:35:36;95797.34;;;7.44;65.71
56600;BME280;51832;48.152;11.530;2023-03-03T22:40:36;95810.75;;;7.28;65.49
56600;BME280;51832;48.152;11.530;2023-03-03T22:45:36;95800.19;;;7.14;66.59
56600;BME280;51832;48.152;11.530;2023-03-03T22:50:37;95804.41;;;7.09;66.77
56600;BME280;51832;48.152;11.530;2023-03-03T22:55:39;95806.19;;;6.81;68.00
56600;BME280;51832;48.152;11.530;2023-03-03T23:00:42;95799.81;;;6.40;68.97
56600;BME280;51832;48.152;11.530;2023-03-03T23:05:43;95795.97;;;6.86;67.83
56600;BME280;51832;48.152;11.530;2023-03-03T23:10:44;95808.09;;;6.65;68.56
56600;BME280;51832;48.152;11.530;2023-03-03T23:15:44;95792.31;;;6.59;68.83
56600;BME280;51832;48.152;11.530;2023-03-03T23:20:45;95794.81;;;6.67;68.82
56600;BME280;51832;48.152;11.530;2023-03-03T23:25:46;95789.22;;;6.49;69.49
56600;BME280;51832;48.152;11.530;2023-03-03T23:30:46;95793.78;;;6.89;68.07
56600;BME280;51832;48.152;11.530;2023-03-03T23:35:47;95789.31;;;6.83;68.05
56600;BME280;51832;48.152;11.530;2023-03-03T23:40:48;95792.72;;;6.84;66.82
56600;BME280;51832;48.152;11.530;2023-03-03T23:45:49;95790.88;;;6.77;66.70
56600;BME280;51832;48.152;11.530;2023-03-03T23:50:49;95791.16;;;6.89;67.22
56600;BME280;51832;48.152;11.530;2023-03-03T23:55:50;95799.53;;;6.78;66.70
